• Join FlightAware (Why Join?)
  • Login
  • US Flag 
Rudolph Flight #1: Arrived! 
06:44AM EST


 

Airport Tracker/Info


-or-


 

Live Flight TrackerFlight Track Log ✈ EJA922 ✈ 14-Jul-2013 ✈ KTEB - KRKD

Flight Track Log - Related Links

Times and Time Zones

All times are in EDT time to prevent confusion due to time zone crossing. See the EJA922 flight status page for this flight to view local times or setup timezone preferences in your user account.

Time Position Orientation Groundspeed Altitude Reporting Facility
EDT Latitude Longitude Course Direction KTS MPH feet Rate Location/Type
03:34PM 40.8167 -74.1167 270° West 197 227 1,500  Level New York TRACON
03:35PM 40.8167 -74.1833 270° West 204 235 2,800 1,620 Climbing New York TRACON
03:36PM 40.8167 -74.2667 270° West 262 302 4,800 1,620 Climbing New York TRACON
03:37PM 40.9000 -74.2500 North 282 325 6,100 1,140 Climbing New York TRACON
03:39PM 41.0428 -74.1850 19° North 286 329 8,400 1,500 Climbing Boston Center
03:40PM 41.0942 -74.0817 57° Northeast 292 336 10,800 1,260 Climbing Boston Center
03:41PM 41.1311 -73.9806 64° Northeast 312 359 11,000 60 Climbing Boston Center
03:42PM 41.1889 -73.8744 54° Northeast 320 368 11,000  Level Boston Center
03:43PM 41.2233 -73.7814 64° Northeast 320 368 11,000  Level Boston Center
03:44PM 41.2581 -73.6606 69° East 314 361 11,000 540 Level Boston Center
03:45PM 41.3050 -73.5453 62° Northeast 333 383 12,100 1,560 Climbing Boston Center
03:46PM 41.3767 -73.4469 46° Northeast 364 419 14,200 1,980 Climbing Boston Center
03:47PM 41.4547 -73.3458 44° Northeast 375 432 16,100 1,800 Climbing Boston Center
03:48PM 41.5242 -73.2553 44° Northeast 388 447 17,800 1,440 Climbing Boston Center
03:49PM 41.6189 -73.1428 42° Northeast 395 455 19,000 1,200 Climbing Boston Center
03:50PM 41.7231 -73.1217 North 370 426 20,200 1,200 Climbing Boston Center
03:51PM 41.8356 -73.1422 352° North 376 433 21,400 1,140 Climbing Boston Center
03:52PM 41.9522 -73.1631 352° North 394 453 22,500 1,140 Climbing Boston Center
03:53PM 42.0667 -73.1839 352° North 412 474 23,700 1,080 Climbing Boston Center
03:54PM 42.1856 -73.1714 North 418 481 24,700 1,140 Climbing Boston Center
03:55PM 42.3044 -73.1447 North 423 487 26,000 1,140 Climbing Boston Center
03:56PM 42.4236 -73.0897 19° North 442 509 27,000 480 Climbing Boston Center
03:57PM 42.5036 -72.9469 53° Northeast 431 496 27,000  Level Boston Center
03:58PM 42.5728 -72.7925 59° Northeast 449 517 27,000  Level Boston Center
03:59PM 42.6253 -72.6631 61° Northeast 467 537 27,000  Level Boston Center
04:00PM 42.7025 -72.4994 57° Northeast 467 537 27,000  Level Boston Center
04:01PM 42.7692 -72.3411 60° Northeast 480 552 27,000  Level Boston Center
04:02PM 42.8336 -72.1767 62° Northeast 480 552 27,000  Level Boston Center
04:03PM 42.8997 -72.0178 60° Northeast 480 552 27,000  Level Boston Center
04:04PM 42.9678 -71.8556 60° Northeast 480 552 27,000 -480 Level Boston Center
04:05PM 43.0378 -71.6903 60° Northeast 485 558 26,100 -1,020 Descending Boston Center
04:06PM 43.1114 -71.5100 61° Northeast 485 558 25,000 -1,020 Descending Boston Center
04:07PM 43.1747 -71.3639 59° Northeast 485 558 24,100 -900 Descending Boston Center
04:08PM 43.2400 -71.2061 60° Northeast 485 558 23,300 -1,200 Descending Boston Center
04:09PM 43.3047 -71.0450 61° Northeast 485 558 21,700 -1,800 Descending Boston Center
04:10PM 43.3733 -70.8747 61° Northeast 478 550 19,700 -1,980 Descending Boston Center
04:11PM 43.4236 -70.7392 63° Northeast 447 514 17,800 -1,740 Descending Boston Center
04:13PM 43.4878 -70.5800 61° Northeast 439 505 15,900 -1,980 Descending Boston Center
04:14PM 43.5497 -70.4233 61° Northeast 400 460 13,500 -2,160 Descending Boston Center
04:15PM 43.5917 -70.3217 60° Northeast 353 406 11,600 -1,980 Descending Boston Center
04:16PM 43.6453 -70.1792 62° Northeast 320 368 9,200 -1,200 Descending Boston Center
04:17PM 43.6828 -70.0831 62° Northeast 291 335 9,000 -600 Descending Boston Center
04:18PM 43.7167 -70.0011 60° Northeast 278 320 8,000 -1,320 Descending Boston Center
04:19PM 43.7539 -69.8992 63° Northeast 273 314 6,400 -1,500 Descending Boston Center
04:20PM 43.7833 -69.8203 63° Northeast 267 307 5,100 -660 Descending Boston Center
04:21PM 43.8186 -69.7236 63° Northeast 257 296 5,100 -60 Level Boston Center
04:22PM 43.8500 -69.6389 63° Northeast 266 306 5,000 -60 Descending Boston Center
04:23PM 43.8892 -69.5389 61° Northeast 266 306 5,000  Level Boston Center
04:24PM 43.9206 -69.4597 61° Northeast 261 300 5,100 -900 Climbing Boston Center
04:25PM 43.9575 -69.3625 62° Northeast 256 295 3,300 -1,800 Descending Boston Center
04:27PM 44.0322 -69.1369 65° Northeast  Level FlightAware Approximate
04:34PM 44.0500 -69.0833 65° Northeast  Level FlightAware Approximate